sensor_id;sensor_type;location;lat;lon;timestamp;pressure;altitude;pressure_sealevel;temperature;humidity
12536;BME280;6334;48.696;2.114;2023-02-22T00:02:26;99686.48;;;10.30;67.83
12536;BME280;6334;48.696;2.114;2023-02-22T00:04:56;99673.26;;;10.27;68.14
12536;BME280;6334;48.696;2.114;2023-02-22T00:07:27;99671.63;;;10.24;68.33
12536;BME280;6334;48.696;2.114;2023-02-22T00:09:58;99671.73;;;10.23;68.17
12536;BME280;6334;48.696;2.114;2023-02-22T00:12:28;99655.74;;;10.29;67.32
12536;BME280;6334;48.696;2.114;2023-02-22T00:15:01;99666.02;;;10.38;66.94
12536;BME280;6334;48.696;2.114;2023-02-22T00:17:34;99659.13;;;10.30;67.81
12536;BME280;6334;48.696;2.114;2023-02-22T00:20:04;99656.39;;;10.25;67.91
12536;BME280;6334;48.696;2.114;2023-02-22T00:22:35;99660.53;;;10.22;67.64
12536;BME280;6334;48.696;2.114;2023-02-22T00:25:07;99663.93;;;10.22;68.04
12536;BME280;6334;48.696;2.114;2023-02-22T00:27:37;99667.00;;;10.18;68.29
12536;BME280;6334;48.696;2.114;2023-02-22T00:30:07;99664.84;;;10.17;69.48
12536;BME280;6334;48.696;2.114;2023-02-22T00:32:37;99676.31;;;10.00;69.26
12536;BME280;6334;48.696;2.114;2023-02-22T00:35:09;99665.31;;;10.19;69.15
12536;BME280;6334;48.696;2.114;2023-02-22T00:37:39;99664.41;;;10.22;68.83
12536;BME280;6334;48.696;2.114;2023-02-22T00:40:11;99659.64;;;10.21;68.65
12536;BME280;6334;48.696;2.114;2023-02-22T00:42:42;99657.15;;;10.04;70.35
12536;BME280;6334;48.696;2.114;2023-02-22T00:45:13;99657.22;;;10.09;70.33
12536;BME280;6334;48.696;2.114;2023-02-22T00:47:42;99654.06;;;10.15;69.44
12536;BME280;6334;48.696;2.114;2023-02-22T00:50:12;99654.88;;;10.22;69.21
12536;BME280;6334;48.696;2.114;2023-02-22T00:52:43;99653.16;;;10.09;70.36
12536;BME280;6334;48.696;2.114;2023-02-22T00:55:24;99650.72;;;10.12;69.91
12536;BME280;6334;48.696;2.114;2023-02-22T00:57:53;99655.01;;;10.18;69.37
12536;BME280;6334;48.696;2.114;2023-02-22T01:00:24;99655.25;;;10.24;69.37
12536;BME280;6334;48.696;2.114;2023-02-22T01:02:55;99647.88;;;10.28;68.71
12536;BME280;6334;48.696;2.114;2023-02-22T01:05:26;99643.44;;;10.20;69.11
12536;BME280;6334;48.696;2.114;2023-02-22T01:07:55;99651.27;;;10.14;69.46
12536;BME280;6334;48.696;2.114;2023-02-22T01:10:27;99646.38;;;10.23;69.13
12536;BME280;6334;48.696;2.114;2023-02-22T01:12:56;99642.14;;;10.23;69.47
12536;BME280;6334;48.696;2.114;2023-02-22T01:15:28;99635.73;;;10.22;68.91
12536;BME280;6334;48.696;2.114;2023-02-22T01:17:57;99640.80;;;9.99;69.81
12536;BME280;6334;48.696;2.114;2023-02-22T01:20:27;99643.02;;;9.77;70.61
12536;BME280;6334;48.696;2.114;2023-02-22T01:22:58;99635.33;;;10.02;69.78
12536;BME280;6334;48.696;2.114;2023-02-22T01:25:29;99631.64;;;10.10;69.69
12536;BME280;6334;48.696;2.114;2023-02-22T01:27:59;99631.09;;;9.91;70.11
12536;BME280;6334;48.696;2.114;2023-02-22T01:30:34;99630.69;;;9.86;70.21
12536;BME280;6334;48.696;2.114;2023-02-22T01:33:04;99631.83;;;10.02;69.89
12536;BME280;6334;48.696;2.114;2023-02-22T01:35:34;99636.06;;;9.81;70.61
12536;BME280;6334;48.696;2.114;2023-02-22T01:38:04;99643.67;;;9.72;70.58
12536;BME280;6334;48.696;2.114;2023-02-22T01:40:36;99645.00;;;9.84;70.65
12536;BME280;6334;48.696;2.114;2023-02-22T01:45:58;99637.61;;;9.94;70.56
12536;BME280;6334;48.696;2.114;2023-02-22T01:48:45;99628.70;;;10.00;69.61
12536;BME280;6334;48.696;2.114;2023-02-22T01:51:16;99628.09;;;10.02;69.75
12536;BME280;6334;48.696;2.114;2023-02-22T01:53:52;99625.75;;;10.08;69.53
12536;BME280;6334;48.696;2.114;2023-02-22T01:56:21;99627.91;;;9.89;69.67
12536;BME280;6334;48.696;2.114;2023-02-22T01:58:52;99627.63;;;9.69;70.63
12536;BME280;6334;48.696;2.114;2023-02-22T02:01:20;99630.06;;;9.71;70.60
12536;BME280;6334;48.696;2.114;2023-02-22T02:03:51;99622.96;;;9.68;70.93
12536;BME280;6334;48.696;2.114;2023-02-22T02:06:21;99622.44;;;9.88;69.91
12536;BME280;6334;48.696;2.114;2023-02-22T02:09:17;99617.68;;;9.88;69.92
12536;BME280;6334;48.696;2.114;2023-02-22T02:11:45;99614.45;;;9.78;70.39
12536;BME280;6334;48.696;2.114;2023-02-22T02:14:18;99621.42;;;9.71;70.51
12536;BME280;6334;48.696;2.114;2023-02-22T02:16:50;99618.69;;;9.88;70.29
12536;BME280;6334;48.696;2.114;2023-02-22T02:19:53;99604.59;;;9.70;70.36
12536;BME280;6334;48.696;2.114;2023-02-22T02:27:40;99606.98;;;9.77;70.16
12536;BME280;6334;48.696;2.114;2023-02-22T02:35:58;99603.34;;;9.55;70.99
12536;BME280;6334;48.696;2.114;2023-02-22T02:38:31;99592.05;;;9.82;70.53
12536;BME280;6334;48.696;2.114;2023-02-22T02:41:04;99595.48;;;9.63;70.33
12536;BME280;6334;48.696;2.114;2023-02-22T02:46:18;99592.38;;;9.70;70.99
12536;BME280;6334;48.696;2.114;2023-02-22T02:48:51;99589.44;;;9.67;70.45
12536;BME280;6334;48.696;2.114;2023-02-22T02:51:17;99594.62;;;9.49;70.99
12536;BME280;6334;48.696;2.114;2023-02-22T02:53:47;99591.72;;;9.30;71.83
12536;BME280;6334;48.696;2.114;2023-02-22T02:56:17;99591.91;;;9.48;71.70
12536;BME280;6334;48.696;2.114;2023-02-22T02:58:50;99590.84;;;9.69;70.37
12536;BME280;6334;48.696;2.114;2023-02-22T03:07:13;99589.87;;;9.31;71.62
12536;BME280;6334;48.696;2.114;2023-02-22T03:18:08;99574.55;;;9.53;71.62
12536;BME280;6334;48.696;2.114;2023-02-22T03:20:58;99572.13;;;9.59;70.52
12536;BME280;6334;48.696;2.114;2023-02-22T03:23:28;99572.20;;;9.14;71.80
12536;BME280;6334;48.696;2.114;2023-02-22T03:26:02;99575.45;;;9.37;71.43
12536;BME280;6334;48.696;2.114;2023-02-22T03:28:31;99573.41;;;9.46;71.13
12536;BME280;6334;48.696;2.114;2023-02-22T03:31:08;99570.25;;;9.57;70.54
12536;BME280;6334;48.696;2.114;2023-02-22T03:33:41;99570.19;;;9.50;70.44
12536;BME280;6334;48.696;2.114;2023-02-22T03:36:15;99573.35;;;9.32;71.64
12536;BME280;6334;48.696;2.114;2023-02-22T03:38:43;99571.77;;;9.44;71.33
12536;BME280;6334;48.696;2.114;2023-02-22T03:41:13;99567.86;;;9.32;71.30
12536;BME280;6334;48.696;2.114;2023-02-22T03:43:49;99566.73;;;9.42;71.27
12536;BME280;6334;48.696;2.114;2023-02-22T03:46:18;99564.56;;;9.26;72.14
12536;BME280;6334;48.696;2.114;2023-02-22T03:49:08;99557.41;;;9.32;71.16
12536;BME280;6334;48.696;2.114;2023-02-22T03:51:37;99566.40;;;9.26;71.31
12536;BME280;6334;48.696;2.114;2023-02-22T03:54:13;99565.70;;;8.97;72.42
12536;BME280;6334;48.696;2.114;2023-02-22T03:56:48;99565.44;;;8.85;72.95
12536;BME280;6334;48.696;2.114;2023-02-22T03:59:14;99567.32;;;8.88;72.85
12536;BME280;6334;48.696;2.114;2023-02-22T04:01:44;99564.32;;;8.74;73.75
12536;BME280;6334;48.696;2.114;2023-02-22T04:04:13;99563.44;;;8.79;73.31
12536;BME280;6334;48.696;2.114;2023-02-22T04:06:48;99561.81;;;8.74;73.37
12536;BME280;6334;48.696;2.114;2023-02-22T04:09:17;99556.86;;;8.94;72.68
12536;BME280;6334;48.696;2.114;2023-02-22T04:11:48;99560.56;;;9.08;72.52
12536;BME280;6334;48.696;2.114;2023-02-22T04:14:21;99559.54;;;8.97;72.74
12536;BME280;6334;48.696;2.114;2023-02-22T04:16:56;99558.14;;;9.05;72.69
12536;BME280;6334;48.696;2.114;2023-02-22T04:19:26;99563.72;;;8.89;72.80
12536;BME280;6334;48.696;2.114;2023-02-22T04:21:57;99564.03;;;8.76;73.46
12536;BME280;6334;48.696;2.114;2023-02-22T04:24:31;99562.38;;;8.83;73.13
12536;BME280;6334;48.696;2.114;2023-02-22T04:27:00;99566.07;;;8.94;73.26
12536;BME280;6334;48.696;2.114;2023-02-22T04:29:32;99566.98;;;8.81;73.46
12536;BME280;6334;48.696;2.114;2023-02-22T04:32:04;99569.63;;;8.94;72.97
12536;BME280;6334;48.696;2.114;2023-02-22T04:34:34;99569.58;;;8.72;74.15
12536;BME280;6334;48.696;2.114;2023-02-22T04:37:14;99562.72;;;8.76;73.37
12536;BME280;6334;48.696;2.114;2023-02-22T04:39:43;99563.19;;;8.85;73.06
12536;BME280;6334;48.696;2.114;2023-02-22T04:42:17;99566.30;;;8.89;73.40
12536;BME280;6334;48.696;2.114;2023-02-22T04:44:46;99569.60;;;8.69;74.12
12536;BME280;6334;48.696;2.114;2023-02-22T04:47:18;99570.84;;;8.76;73.57
12536;BME280;6334;48.696;2.114;2023-02-22T04:49:48;99561.70;;;8.65;74.28
12536;BME280;6334;48.696;2.114;2023-02-22T04:52:23;99572.23;;;8.72;74.57
12536;BME280;6334;48.696;2.114;2023-02-22T04:54:54;99574.91;;;8.77;73.82
12536;BME280;6334;48.696;2.114;2023-02-22T04:57:26;99582.73;;;8.45;74.86
12536;BME280;6334;48.696;2.114;2023-02-22T04:59:56;99584.42;;;8.48;74.81
12536;BME280;6334;48.696;2.114;2023-02-22T05:02:30;99579.27;;;8.79;73.78
12536;BME280;6334;48.696;2.114;2023-02-22T05:05:00;99579.98;;;8.45;74.87
12536;BME280;6334;48.696;2.114;2023-02-22T05:07:31;99581.46;;;8.35;76.04
12536;BME280;6334;48.696;2.114;2023-02-22T05:10:02;99580.48;;;8.59;74.84
12536;BME280;6334;48.696;2.114;2023-02-22T05:12:35;99576.79;;;8.58;74.94
12536;BME280;6334;48.696;2.114;2023-02-22T05:15:05;99572.64;;;8.64;75.13
12536;BME280;6334;48.696;2.114;2023-02-22T05:17:36;99572.14;;;8.50;75.27
12536;BME280;6334;48.696;2.114;2023-02-22T05:20:06;99570.69;;;8.30;76.39
12536;BME280;6334;48.696;2.114;2023-02-22T05:22:39;99568.16;;;8.58;75.72
12536;BME280;6334;48.696;2.114;2023-02-22T05:25:10;99561.56;;;8.49;75.70
12536;BME280;6334;48.696;2.114;2023-02-22T05:27:40;99564.65;;;8.53;75.75
12536;BME280;6334;48.696;2.114;2023-02-22T05:30:09;99565.14;;;8.26;76.96
12536;BME280;6334;48.696;2.114;2023-02-22T05:32:42;99569.56;;;8.25;76.53
12536;BME280;6334;48.696;2.114;2023-02-22T05:35:12;99567.39;;;8.08;77.24
12536;BME280;6334;48.696;2.114;2023-02-22T05:37:45;99569.91;;;8.38;75.94
12536;BME280;6334;48.696;2.114;2023-02-22T05:40:17;99562.21;;;8.32;76.03
12536;BME280;6334;48.696;2.114;2023-02-22T05:42:46;99559.89;;;8.32;76.42
12536;BME280;6334;48.696;2.114;2023-02-22T05:45:16;99571.11;;;8.46;76.42
12536;BME280;6334;48.696;2.114;2023-02-22T05:47:47;99564.33;;;8.33;76.73
12536;BME280;6334;48.696;2.114;2023-02-22T05:50:17;99571.17;;;8.29;76.74
12536;BME280;6334;48.696;2.114;2023-02-22T05:52:47;99572.70;;;8.18;77.10
12536;BME280;6334;48.696;2.114;2023-02-22T05:55:21;99579.94;;;8.03;77.87
12536;BME280;6334;48.696;2.114;2023-02-22T05:57:51;99583.11;;;8.21;77.71
12536;BME280;6334;48.696;2.114;2023-02-22T06:00:30;99575.33;;;8.35;75.99
12536;BME280;6334;48.696;2.114;2023-02-22T06:03:01;99580.18;;;8.40;76.03
12536;BME280;6334;48.696;2.114;2023-02-22T06:05:29;99583.55;;;8.35;76.85
12536;BME280;6334;48.696;2.114;2023-02-22T06:08:00;99578.09;;;8.44;76.21
12536;BME280;6334;48.696;2.114;2023-02-22T06:10:30;99578.70;;;8.48;75.65
12536;BME280;6334;48.696;2.114;2023-02-22T06:13:01;99576.99;;;8.47;76.05
12536;BME280;6334;48.696;2.114;2023-02-22T06:15:30;99570.62;;;8.11;77.21
12536;BME280;6334;48.696;2.114;2023-02-22T06:18:02;99574.19;;;8.44;76.45
12536;BME280;6334;48.696;2.114;2023-02-22T06:20:32;99576.59;;;8.33;76.66
12536;BME280;6334;48.696;2.114;2023-02-22T06:23:05;99576.15;;;8.04;77.99
12536;BME280;6334;48.696;2.114;2023-02-22T06:25:37;99581.15;;;8.26;77.44
12536;BME280;6334;48.696;2.114;2023-02-22T06:28:11;99574.74;;;8.46;76.45
12536;BME280;6334;48.696;2.114;2023-02-22T06:30:42;99566.75;;;8.06;78.04
12536;BME280;6334;48.696;2.114;2023-02-22T06:33:13;99565.69;;;8.05;78.65
12536;BME280;6334;48.696;2.114;2023-02-22T06:35:43;99576.44;;;8.25;77.98
12536;BME280;6334;48.696;2.114;2023-02-22T06:38:21;99584.53;;;8.10;78.58
12536;BME280;6334;48.696;2.114;2023-02-22T06:40:56;99597.63;;;8.27;78.25
12536;BME280;6334;48.696;2.114;2023-02-22T06:43:26;99602.81;;;8.43;76.99
12536;BME280;6334;48.696;2.114;2023-02-22T06:46:02;99594.44;;;8.22;78.15
12536;BME280;6334;48.696;2.114;2023-02-22T06:48:35;99584.72;;;8.44;78.06
12536;BME280;6334;48.696;2.114;2023-02-22T06:51:07;99583.19;;;8.04;79.97
12536;BME280;6334;48.696;2.114;2023-02-22T06:53:41;99591.98;;;7.91;81.29
12536;BME280;6334;48.696;2.114;2023-02-22T06:56:13;99594.03;;;8.22;80.16
12536;BME280;6334;48.696;2.114;2023-02-22T06:58:44;99597.96;;;8.47;79.54
12536;BME280;6334;48.696;2.114;2023-02-22T07:01:21;99587.63;;;8.45;78.94
12536;BME280;6334;48.696;2.114;2023-02-22T07:03:52;99587.27;;;7.92;81.72
12536;BME280;6334;48.696;2.114;2023-02-22T07:06:27;99597.91;;;8.07;81.21
12536;BME280;6334;48.696;2.114;2023-02-22T07:08:56;99607.73;;;7.99;81.90
12536;BME280;6334;48.696;2.114;2023-02-22T07:11:41;99611.94;;;7.92;82.45
12536;BME280;6334;48.696;2.114;2023-02-22T07:14:47;99620.45;;;7.93;82.68
12536;BME280;6334;48.696;2.114;2023-02-22T07:17:40;99600.34;;;8.01;82.66
12536;BME280;6334;48.696;2.114;2023-02-22T07:23:02;99587.79;;;8.09;82.45
12536;BME280;6334;48.696;2.114;2023-02-22T07:25:43;99626.66;;;8.05;82.12
12536;BME280;6334;48.696;2.114;2023-02-22T07:28:13;99627.01;;;8.15;81.55
12536;BME280;6334;48.696;2.114;2023-02-22T07:30:48;99625.19;;;8.12;81.92
12536;BME280;6334;48.696;2.114;2023-02-22T07:33:20;99631.97;;;8.06;82.46
12536;BME280;6334;48.696;2.114;2023-02-22T07:35:54;99627.03;;;8.27;82.16
12536;BME280;6334;48.696;2.114;2023-02-22T07:38:25;99626.19;;;8.23;82.29
12536;BME280;6334;48.696;2.114;2023-02-22T07:40:57;99617.08;;;8.51;80.63
12536;BME280;6334;48.696;2.114;2023-02-22T07:43:27;99606.02;;;8.33;81.71
12536;BME280;6334;48.696;2.114;2023-02-22T07:46:01;99625.41;;;8.33;82.43
12536;BME280;6334;48.696;2.114;2023-02-22T07:48:31;99641.53;;;8.50;81.66
12536;BME280;6334;48.696;2.114;2023-02-22T07:51:01;99644.03;;;8.36;81.95
12536;BME280;6334;48.696;2.114;2023-02-22T07:53:35;99637.77;;;8.47;83.02
12536;BME280;6334;48.696;2.114;2023-02-22T07:56:05;99635.90;;;8.43;82.10
12536;BME280;6334;48.696;2.114;2023-02-22T07:58:49;99633.05;;;8.22;84.02
12536;BME280;6334;48.696;2.114;2023-02-22T08:01:41;99628.08;;;8.31;83.79
12536;BME280;6334;48.696;2.114;2023-02-22T08:04:11;99625.02;;;8.32;83.33
12536;BME280;6334;48.696;2.114;2023-02-22T08:06:41;99635.26;;;8.64;81.68
12536;BME280;6334;48.696;2.114;2023-02-22T08:09:11;99633.77;;;8.64;82.74
12536;BME280;6334;48.696;2.114;2023-02-22T08:11:41;99635.41;;;8.48;82.66
12536;BME280;6334;48.696;2.114;2023-02-22T08:14:50;99403.14;;;6.98;82.97
12536;BME280;6334;48.696;2.114;2023-02-22T08:17:19;99636.09;;;8.72;81.40
12536;BME280;6334;48.696;2.114;2023-02-22T08:21:00;99632.68;;;8.86;82.01
12536;BME280;6334;48.696;2.114;2023-02-22T08:23:30;99625.02;;;8.77;81.23
12536;BME280;6334;48.696;2.114;2023-02-22T08:26:17;99632.02;;;8.81;81.54
12536;BME280;6334;48.696;2.114;2023-02-22T08:28:47;99644.52;;;9.36;78.88
12536;BME280;6334;48.696;2.114;2023-02-22T08:31:17;99651.42;;;9.47;78.39
12536;BME280;6334;48.696;2.114;2023-02-22T08:33:58;99650.22;;;9.32;79.26
12536;BME280;6334;48.696;2.114;2023-02-22T08:37:34;99664.94;;;9.03;81.52
12536;BME280;6334;48.696;2.114;2023-02-22T08:40:21;99660.49;;;8.85;82.01
12536;BME280;6334;48.696;2.114;2023-02-22T08:47:25;99596.24;;;8.25;82.80
12536;BME280;6334;48.696;2.114;2023-02-22T08:51:35;99662.44;;;8.88;82.24
12536;BME280;6334;48.696;2.114;2023-02-22T08:57:21;99481.80;;;8.01;81.10
12536;BME280;6334;48.696;2.114;2023-02-22T09:00:17;99647.25;;;9.04;81.52
12536;BME280;6334;48.696;2.114;2023-02-22T09:07:27;99631.12;;;9.00;81.45
12536;BME280;6334;48.696;2.114;2023-02-22T09:11:10;99649.53;;;9.15;81.22
12536;BME280;6334;48.696;2.114;2023-02-22T09:14:12;99674.75;;;9.00;81.61
12536;BME280;6334;48.696;2.114;2023-02-22T09:17:01;99664.39;;;9.14;81.06
12536;BME280;6334;48.696;2.114;2023-02-22T09:19:36;99662.59;;;9.04;81.19
12536;BME280;6334;48.696;2.114;2023-02-22T09:22:46;99667.69;;;9.22;80.68
12536;BME280;6334;48.696;2.114;2023-02-22T09:28:08;99662.22;;;9.14;81.16
12536;BME280;6334;48.696;2.114;2023-02-22T09:32:04;99678.09;;;9.33;79.95
12536;BME280;6334;48.696;2.114;2023-02-22T09:38:22;99669.77;;;9.34;79.90
12536;BME280;6334;48.696;2.114;2023-02-22T09:47:01;99664.07;;;9.12;80.70
12536;BME280;6334;48.696;2.114;2023-02-22T09:49:39;99660.30;;;9.42;79.19
12536;BME280;6334;48.696;2.114;2023-02-22T10:00:50;99615.86;;;9.12;79.26
12536;BME280;6334;48.696;2.114;2023-02-22T10:08:50;99640.80;;;8.96;81.04
12536;BME280;6334;48.696;2.114;2023-02-22T10:14:21;99537.49;;;8.70;79.67
12536;BME280;6334;48.696;2.114;2023-02-22T10:25:01;99671.19;;;9.48;79.53
12536;BME280;6334;48.696;2.114;2023-02-22T10:29:47;99673.94;;;9.47;79.62
12536;BME280;6334;48.696;2.114;2023-02-22T10:32:25;99669.63;;;9.45;78.97
12536;BME280;6334;48.696;2.114;2023-02-22T10:35:12;99673.14;;;9.57;79.18
12536;BME280;6334;48.696;2.114;2023-02-22T10:40:16;99670.66;;;9.44;79.58
12536;BME280;6334;48.696;2.114;2023-02-22T10:44:09;99667.69;;;9.49;79.14
12536;BME280;6334;48.696;2.114;2023-02-22T10:46:39;99672.59;;;9.61;78.12
12536;BME280;6334;48.696;2.114;2023-02-22T10:49:35;99582.28;;;9.16;78.24
12536;BME280;6334;48.696;2.114;2023-02-22T10:56:56;99662.62;;;9.67;78.39
12536;BME280;6334;48.696;2.114;2023-02-22T10:59:49;99651.61;;;9.51;78.08
12536;BME280;6334;48.696;2.114;2023-02-22T11:03:17;99663.58;;;9.69;77.86
12536;BME280;6334;48.696;2.114;2023-02-22T11:12:06;99549.77;;;8.76;78.73
12536;BME280;6334;48.696;2.114;2023-02-22T11:17:52;99667.88;;;9.34;79.19
12536;BME280;6334;48.696;2.114;2023-02-22T11:21:40;99668.42;;;9.49;78.97
12536;BME280;6334;48.696;2.114;2023-02-22T11:24:29;99670.45;;;9.54;78.36
12536;BME280;6334;48.696;2.114;2023-02-22T11:30:39;99658.49;;;9.46;78.51
12536;BME280;6334;48.696;2.114;2023-02-22T11:35:38;99661.25;;;9.46;78.96
12536;BME280;6334;48.696;2.114;2023-02-22T11:45:11;99657.70;;;9.55;77.51
12536;BME280;6334;48.696;2.114;2023-02-22T11:49:08;99560.88;;;9.16;77.39
12536;BME280;6334;48.696;2.114;2023-02-22T11:51:40;99653.13;;;9.73;76.59
12536;BME280;6334;48.696;2.114;2023-02-22T11:54:57;99612.41;;;9.41;77.03
12536;BME280;6334;48.696;2.114;2023-02-22T11:57:51;99644.59;;;9.84;76.20
12536;BME280;6334;48.696;2.114;2023-02-22T12:09:07;99649.91;;;9.66;77.23
12536;BME280;6334;48.696;2.114;2023-02-22T12:19:32;99644.59;;;9.18;79.30
12536;BME280;6334;48.696;2.114;2023-02-22T12:22:11;99635.34;;;9.33;78.61
12536;BME280;6334;48.696;2.114;2023-02-22T12:28:32;99621.89;;;9.40;78.87
12536;BME280;6334;48.696;2.114;2023-02-22T12:36:02;99586.73;;;9.30;77.92
12536;BME280;6334;48.696;2.114;2023-02-22T12:40:45;99622.86;;;9.24;79.20
12536;BME280;6334;48.696;2.114;2023-02-22T12:46:51;99624.08;;;9.55;77.60
12536;BME280;6334;48.696;2.114;2023-02-22T12:59:55;99639.82;;;9.35;78.06
12536;BME280;6334;48.696;2.114;2023-02-22T13:02:38;99614.64;;;9.29;78.04
12536;BME280;6334;48.696;2.114;2023-02-22T13:06:00;99615.95;;;9.61;77.33
12536;BME280;6334;48.696;2.114;2023-02-22T13:12:44;99615.84;;;9.38;78.38
12536;BME280;6334;48.696;2.114;2023-02-22T13:16:51;99615.48;;;9.27;78.84
12536;BME280;6334;48.696;2.114;2023-02-22T13:23:44;99610.03;;;9.51;78.57
12536;BME280;6334;48.696;2.114;2023-02-22T13:27:58;99610.51;;;9.41;78.84
12536;BME280;6334;48.696;2.114;2023-02-22T13:53:33;99599.92;;;9.01;80.54
12536;BME280;6334;48.696;2.114;2023-02-22T13:56:07;99600.41;;;9.20;79.97
12536;BME280;6334;48.696;2.114;2023-02-22T14:02:54;99589.13;;;9.20;81.02
12536;BME280;6334;48.696;2.114;2023-02-22T14:09:59;99595.39;;;9.51;80.13
12536;BME280;6334;48.696;2.114;2023-02-22T14:13:04;99596.99;;;9.44;80.44
12536;BME280;6334;48.696;2.114;2023-02-22T14:22:00;99365.75;;;8.21;79.99
12536;BME280;6334;48.696;2.114;2023-02-22T14:25:36;99627.69;;;9.42;81.05
12536;BME280;6334;48.696;2.114;2023-02-22T14:29:18;99598.70;;;9.75;79.76
12536;BME280;6334;48.696;2.114;2023-02-22T14:35:38;99595.36;;;9.71;80.79
12536;BME280;6334;48.696;2.114;2023-02-22T14:38:13;99595.99;;;9.56;80.24
12536;BME280;6334;48.696;2.114;2023-02-22T14:44:59;99598.95;;;9.41;80.47
12536;BME280;6334;48.696;2.114;2023-02-22T14:50:56;99586.41;;;9.53;80.17
12536;BME280;6334;48.696;2.114;2023-02-22T14:57:02;99592.77;;;9.88;78.91
12536;BME280;6334;48.696;2.114;2023-02-22T14:59:33;99587.66;;;9.91;78.17
12536;BME280;6334;48.696;2.114;2023-02-22T15:06:35;99528.53;;;9.63;78.62
12536;BME280;6334;48.696;2.114;2023-02-22T15:09:14;99586.84;;;9.79;78.69
12536;BME280;6334;48.696;2.114;2023-02-22T15:15:16;99591.70;;;9.92;79.14
12536;BME280;6334;48.696;2.114;2023-02-22T15:25:27;99585.28;;;9.67;79.57
12536;BME280;6334;48.696;2.114;2023-02-22T15:28:00;99573.66;;;10.21;75.92
12536;BME280;6334;48.696;2.114;2023-02-22T15:30:30;99583.06;;;9.87;78.29
12536;BME280;6334;48.696;2.114;2023-02-22T15:33:15;99590.45;;;9.76;78.44
12536;BME280;6334;48.696;2.114;2023-02-22T15:35:44;99585.55;;;9.67;79.02
12536;BME280;6334;48.696;2.114;2023-02-22T15:38:28;99586.02;;;9.40;80.10
12536;BME280;6334;48.696;2.114;2023-02-22T15:41:22;99586.81;;;9.60;79.36
12536;BME280;6334;48.696;2.114;2023-02-22T15:46:41;99579.61;;;9.57;79.03
12536;BME280;6334;48.696;2.114;2023-02-22T15:49:19;99586.85;;;9.15;79.26
12536;BME280;6334;48.696;2.114;2023-02-22T15:51:51;99584.23;;;9.64;78.82
12536;BME280;6334;48.696;2.114;2023-02-22T15:54:27;99594.27;;;9.61;78.93
12536;BME280;6334;48.696;2.114;2023-02-22T15:57:03;99585.50;;;9.65;79.57
12536;BME280;6334;48.696;2.114;2023-02-22T15:59:38;99583.89;;;9.60;79.24
12536;BME280;6334;48.696;2.114;2023-02-22T16:04:45;99416.81;;;8.79;78.27
12536;BME280;6334;48.696;2.114;2023-02-22T16:07:40;99592.09;;;9.78;78.57
12536;BME280;6334;48.696;2.114;2023-02-22T16:11:42;99450.95;;;8.98;78.53
12536;BME280;6334;48.696;2.114;2023-02-22T16:14:29;99585.41;;;9.85;77.92
12536;BME280;6334;48.696;2.114;2023-02-22T16:22:46;99576.72;;;9.78;78.29
12536;BME280;6334;48.696;2.114;2023-02-22T16:28:02;99376.92;;;8.50;77.92
12536;BME280;6334;48.696;2.114;2023-02-22T16:30:35;99581.09;;;9.65;78.29
12536;BME280;6334;48.696;2.114;2023-02-22T16:33:07;99582.50;;;9.64;78.37
12536;BME280;6334;48.696;2.114;2023-02-22T16:36:13;99575.31;;;9.63;78.98
12536;BME280;6334;48.696;2.114;2023-02-22T16:38:45;99584.02;;;9.68;78.35
12536;BME280;6334;48.696;2.114;2023-02-22T16:41:14;99585.45;;;9.77;78.38
12536;BME280;6334;48.696;2.114;2023-02-22T16:43:49;99588.30;;;9.76;78.51
12536;BME280;6334;48.696;2.114;2023-02-22T16:46:19;99589.97;;;9.26;80.64
12536;BME280;6334;48.696;2.114;2023-02-22T16:48:48;99582.83;;;9.80;77.80
12536;BME280;6334;48.696;2.114;2023-02-22T16:51:24;99585.98;;;9.76;78.36
12536;BME280;6334;48.696;2.114;2023-02-22T16:53:53;99588.89;;;9.90;77.55
12536;BME280;6334;48.696;2.114;2023-02-22T16:56:28;99592.06;;;9.53;78.57
12536;BME280;6334;48.696;2.114;2023-02-22T16:58:56;99588.27;;;9.78;78.39
12536;BME280;6334;48.696;2.114;2023-02-22T17:01:25;99593.73;;;9.80;78.40
12536;BME280;6334;48.696;2.114;2023-02-22T17:03:55;99591.48;;;9.75;78.31
12536;BME280;6334;48.696;2.114;2023-02-22T17:06:25;99587.48;;;9.75;78.33
12536;BME280;6334;48.696;2.114;2023-02-22T17:08:55;99593.89;;;9.46;79.28
12536;BME280;6334;48.696;2.114;2023-02-22T17:11:26;99588.83;;;9.73;78.23
12536;BME280;6334;48.696;2.114;2023-02-22T17:13:57;99591.32;;;9.68;78.45
12536;BME280;6334;48.696;2.114;2023-02-22T17:16:27;99595.94;;;9.71;78.30
12536;BME280;6334;48.696;2.114;2023-02-22T17:18:57;99594.53;;;9.67;78.02
12536;BME280;6334;48.696;2.114;2023-02-22T17:21:26;99597.26;;;9.81;77.64
12536;BME280;6334;48.696;2.114;2023-02-22T17:23:56;99598.89;;;9.73;78.30
12536;BME280;6334;48.696;2.114;2023-02-22T17:26:25;99596.00;;;9.72;77.71
12536;BME280;6334;48.696;2.114;2023-02-22T17:28:56;99601.17;;;9.60;78.27
12536;BME280;6334;48.696;2.114;2023-02-22T17:31:26;99603.19;;;9.65;77.94
12536;BME280;6334;48.696;2.114;2023-02-22T17:33:59;99603.25;;;9.54;78.52
12536;BME280;6334;48.696;2.114;2023-02-22T17:36:29;99607.81;;;9.66;77.82
12536;BME280;6334;48.696;2.114;2023-02-22T17:38:59;99609.58;;;9.76;77.46
12536;BME280;6334;48.696;2.114;2023-02-22T17:41:28;99614.78;;;9.71;77.71
12536;BME280;6334;48.696;2.114;2023-02-22T17:43:59;99616.38;;;9.59;78.42
12536;BME280;6334;48.696;2.114;2023-02-22T17:46:46;99605.03;;;9.45;79.15
12536;BME280;6334;48.696;2.114;2023-02-22T17:56:03;99618.05;;;9.42;79.17
12536;BME280;6334;48.696;2.114;2023-02-22T17:58:31;99626.95;;;9.68;77.94
12536;BME280;6334;48.696;2.114;2023-02-22T18:03:06;99645.69;;;9.78;77.80
12536;BME280;6334;48.696;2.114;2023-02-22T18:06:47;99627.41;;;9.55;78.65
12536;BME280;6334;48.696;2.114;2023-02-22T18:09:38;99378.50;;;7.66;79.16
12536;BME280;6334;48.696;2.114;2023-02-22T18:13:08;99635.02;;;9.63;78.35
12536;BME280;6334;48.696;2.114;2023-02-22T18:19:36;99625.13;;;9.38;79.05
12536;BME280;6334;48.696;2.114;2023-02-22T18:25:21;99642.30;;;9.35;79.46
12536;BME280;6334;48.696;2.114;2023-02-22T18:32:02;99632.09;;;9.52;78.81
12536;BME280;6334;48.696;2.114;2023-02-22T18:34:40;99634.67;;;9.75;77.81
12536;BME280;6334;48.696;2.114;2023-02-22T18:44:41;99630.02;;;9.58;78.71
12536;BME280;6334;48.696;2.114;2023-02-22T18:53:32;99624.89;;;9.39;79.12
12536;BME280;6334;48.696;2.114;2023-02-22T18:57:45;99631.78;;;9.51;78.58
12536;BME280;6334;48.696;2.114;2023-02-22T19:00:15;99638.81;;;9.41;79.51
12536;BME280;6334;48.696;2.114;2023-02-22T19:02:45;99635.32;;;9.23;79.84